sensor_id;sensor_type;location;lat;lon;timestamp;pressure;altitude;pressure_sealevel;temperature;humidity
6208;BME280;3137;51.550;7.060;2023-02-04T00:01:53;102750.16;;;6.22;79.11
6208;BME280;3137;51.550;7.060;2023-02-04T00:04:19;102739.66;;;6.16;79.55
6208;BME280;3137;51.550;7.060;2023-02-04T00:06:46;102752.97;;;6.16;79.23
6208;BME280;3137;51.550;7.060;2023-02-04T00:09:12;102758.31;;;6.13;79.40
6208;BME280;3137;51.550;7.060;2023-02-04T00:11:38;102754.78;;;6.12;79.48
6208;BME280;3137;51.550;7.060;2023-02-04T00:14:05;102748.94;;;5.96;79.76
6208;BME280;3137;51.550;7.060;2023-02-04T00:16:31;102749.00;;;5.90;80.63
6208;BME280;3137;51.550;7.060;2023-02-04T00:18:58;102758.66;;;5.97;80.22
6208;BME280;3137;51.550;7.060;2023-02-04T00:21:24;102771.78;;;6.05;79.95
6208;BME280;3137;51.550;7.060;2023-02-04T00:23:50;102772.72;;;6.04;80.03
6208;BME280;3137;51.550;7.060;2023-02-04T00:26:17;102769.09;;;6.07;80.12
6208;BME280;3137;51.550;7.060;2023-02-04T00:28:43;102777.19;;;6.01;80.40
6208;BME280;3137;51.550;7.060;2023-02-04T00:31:09;102775.59;;;5.89;80.50
6208;BME280;3137;51.550;7.060;2023-02-04T00:33:36;102781.72;;;5.97;80.62
6208;BME280;3137;51.550;7.060;2023-02-04T00:36:03;102779.91;;;5.97;80.60
6208;BME280;3137;51.550;7.060;2023-02-04T00:38:29;102771.97;;;5.96;80.77
6208;BME280;3137;51.550;7.060;2023-02-04T00:40:55;102770.22;;;5.93;81.09
6208;BME280;3137;51.550;7.060;2023-02-04T00:43:22;102777.25;;;5.99;80.75
6208;BME280;3137;51.550;7.060;2023-02-04T00:45:48;102778.19;;;5.96;80.75
6208;BME280;3137;51.550;7.060;2023-02-04T00:48:14;102771.22;;;5.88;80.96
6208;BME280;3137;51.550;7.060;2023-02-04T00:50:41;102772.06;;;5.90;81.27
6208;BME280;3137;51.550;7.060;2023-02-04T00:53:07;102777.25;;;5.97;80.90
6208;BME280;3137;51.550;7.060;2023-02-04T00:55:34;102773.81;;;5.91;81.49
6208;BME280;3137;51.550;7.060;2023-02-04T00:58:01;102778.19;;;5.96;80.98
6208;BME280;3137;51.550;7.060;2023-02-04T01:00:27;102790.44;;;6.04;80.82
6208;BME280;3137;51.550;7.060;2023-02-04T01:02:54;102782.50;;;6.01;80.99
6208;BME280;3137;51.550;7.060;2023-02-04T01:05:20;102795.72;;;6.05;80.76
6208;BME280;3137;51.550;7.060;2023-02-04T01:07:46;102789.59;;;6.02;81.00
6208;BME280;3137;51.550;7.060;2023-02-04T01:10:13;102791.34;;;6.03;80.99
6208;BME280;3137;51.550;7.060;2023-02-04T01:12:41;102797.59;;;6.02;81.04
6208;BME280;3137;51.550;7.060;2023-02-04T01:15:08;102802.03;;;6.01;81.35
6208;BME280;3137;51.550;7.060;2023-02-04T01:17:35;102799.38;;;6.01;81.18
6208;BME280;3137;51.550;7.060;2023-02-04T01:20:01;102803.75;;;6.04;81.16
6208;BME280;3137;51.550;7.060;2023-02-04T01:22:27;102812.63;;;6.03;81.18
6208;BME280;3137;51.550;7.060;2023-02-04T01:24:54;102813.50;;;6.03;81.14
6208;BME280;3137;51.550;7.060;2023-02-04T01:27:39;102811.66;;;6.08;80.84
6208;BME280;3137;51.550;7.060;2023-02-04T01:30:05;102820.59;;;6.04;80.94
6208;BME280;3137;51.550;7.060;2023-02-04T01:32:32;102817.91;;;6.06;81.03
6208;BME280;3137;51.550;7.060;2023-02-04T01:34:59;102818.78;;;6.06;80.83
6208;BME280;3137;51.550;7.060;2023-02-04T01:37:25;102831.19;;;6.06;81.18
6208;BME280;3137;51.550;7.060;2023-02-04T01:39:51;102820.72;;;5.96;81.42
6208;BME280;3137;51.550;7.060;2023-02-04T01:42:18;102824.19;;;6.00;81.68
6208;BME280;3137;51.550;7.060;2023-02-04T01:44:45;102821.53;;;6.02;81.52
6208;BME280;3137;51.550;7.060;2023-02-04T01:47:12;102830.38;;;6.01;81.51
6208;BME280;3137;51.550;7.060;2023-02-04T01:49:38;102834.72;;;6.06;81.27
6208;BME280;3137;51.550;7.060;2023-02-04T01:52:05;102831.16;;;6.07;81.68
6208;BME280;3137;51.550;7.060;2023-02-04T01:54:32;102835.53;;;6.10;81.33
6208;BME280;3137;51.550;7.060;2023-02-04T01:56:58;102842.56;;;6.14;81.10
6208;BME280;3137;51.550;7.060;2023-02-04T01:59:25;102840.00;;;6.08;81.68
6208;BME280;3137;51.550;7.060;2023-02-04T02:01:52;102836.59;;;6.01;81.79
6208;BME280;3137;51.550;7.060;2023-02-04T02:04:25;102831.31;;;5.98;81.88
6208;BME280;3137;51.550;7.060;2023-02-04T02:06:56;102839.13;;;6.07;81.68
6208;BME280;3137;51.550;7.060;2023-02-04T02:09:28;102841.69;;;6.13;81.23
6208;BME280;3137;51.550;7.060;2023-02-04T02:11:55;102849.72;;;6.10;81.28
6208;BME280;3137;51.550;7.060;2023-02-04T02:14:22;102846.97;;;6.15;81.35
6208;BME280;3137;51.550;7.060;2023-02-04T02:16:49;102853.19;;;6.14;81.22
6208;BME280;3137;51.550;7.060;2023-02-04T02:19:21;102847.03;;;6.12;81.25
6208;BME280;3137;51.550;7.060;2023-02-04T02:22:02;102851.31;;;6.21;81.26
6208;BME280;3137;51.550;7.060;2023-02-04T02:24:32;102853.19;;;6.15;80.91
6208;BME280;3137;51.550;7.060;2023-02-04T02:27:06;102853.34;;;6.06;81.58
6208;BME280;3137;51.550;7.060;2023-02-04T02:29:35;102863.84;;;6.14;81.18
6208;BME280;3137;51.550;7.060;2023-02-04T02:32:03;102870.09;;;6.11;81.64
6208;BME280;3137;51.550;7.060;2023-02-04T02:34:30;102874.50;;;6.12;81.19
6208;BME280;3137;51.550;7.060;2023-02-04T02:36:58;102881.69;;;6.07;81.50
6208;BME280;3137;51.550;7.060;2023-02-04T02:39:25;102875.50;;;6.08;81.69
6208;BME280;3137;51.550;7.060;2023-02-04T02:41:53;102878.94;;;6.12;81.47
6208;BME280;3137;51.550;7.060;2023-02-04T02:44:20;102870.91;;;6.15;81.60
6208;BME280;3137;51.550;7.060;2023-02-04T02:46:47;102873.72;;;6.07;81.58
6208;BME280;3137;51.550;7.060;2023-02-04T02:49:16;102881.69;;;6.07;81.98
6208;BME280;3137;51.550;7.060;2023-02-04T02:51:46;102878.16;;;6.07;81.51
6208;BME280;3137;51.550;7.060;2023-02-04T02:54:25;102883.41;;;6.10;81.85
6208;BME280;3137;51.550;7.060;2023-02-04T02:56:55;102882.53;;;6.11;81.89
6208;BME280;3137;51.550;7.060;2023-02-04T02:59:23;102871.88;;;6.11;81.70
6208;BME280;3137;51.550;7.060;2023-02-04T03:01:53;102879.00;;;6.09;81.81
6208;BME280;3137;51.550;7.060;2023-02-04T03:04:24;102878.97;;;6.10;81.97
6208;BME280;3137;51.550;7.060;2023-02-04T03:06:51;102873.56;;;6.15;81.62
6208;BME280;3137;51.550;7.060;2023-02-04T03:09:19;102872.69;;;6.14;82.01
6208;BME280;3137;51.550;7.060;2023-02-04T03:11:46;102875.41;;;6.11;81.80
6208;BME280;3137;51.550;7.060;2023-02-04T03:14:13;102886.00;;;6.14;81.94
6208;BME280;3137;51.550;7.060;2023-02-04T03:16:40;102885.13;;;6.14;81.68
6208;BME280;3137;51.550;7.060;2023-02-04T03:19:07;102886.88;;;6.15;81.87
6208;BME280;3137;51.550;7.060;2023-02-04T03:21:34;102886.91;;;6.13;81.80
6208;BME280;3137;51.550;7.060;2023-02-04T03:24:02;102890.53;;;6.08;82.15
6208;BME280;3137;51.550;7.060;2023-02-04T03:26:28;102892.38;;;6.06;82.28
6208;BME280;3137;51.550;7.060;2023-02-04T03:28:54;102891.53;;;6.04;82.50
6208;BME280;3137;51.550;7.060;2023-02-04T03:31:22;102893.28;;;6.03;82.24
6208;BME280;3137;51.550;7.060;2023-02-04T03:33:49;102892.47;;;6.00;82.44
6208;BME280;3137;51.550;7.060;2023-02-04T03:36:15;102894.19;;;6.04;82.73
6208;BME280;3137;51.550;7.060;2023-02-04T03:38:41;102893.34;;;6.00;82.85
6208;BME280;3137;51.550;7.060;2023-02-04T03:41:08;102903.06;;;6.03;82.66
6208;BME280;3137;51.550;7.060;2023-02-04T03:43:34;102906.69;;;5.99;82.73
6208;BME280;3137;51.550;7.060;2023-02-04T03:46:01;102901.31;;;6.02;82.74
6208;BME280;3137;51.550;7.060;2023-02-04T03:48:27;102911.88;;;6.06;82.61
6208;BME280;3137;51.550;7.060;2023-02-04T03:50:53;102914.69;;;5.97;82.81
6208;BME280;3137;51.550;7.060;2023-02-04T03:53:20;102908.44;;;6.00;82.87
6208;BME280;3137;51.550;7.060;2023-02-04T03:55:47;102908.50;;;5.95;83.13
6208;BME280;3137;51.550;7.060;2023-02-04T03:58:13;102911.16;;;5.95;83.22
6208;BME280;3137;51.550;7.060;2023-02-04T04:00:39;102909.38;;;5.97;83.20
6208;BME280;3137;51.550;7.060;2023-02-04T04:03:06;102906.66;;;6.00;82.63
6208;BME280;3137;51.550;7.060;2023-02-04T04:05:32;102911.91;;;6.03;82.83
6208;BME280;3137;51.550;7.060;2023-02-04T04:07:59;102919.06;;;6.01;82.55
6208;BME280;3137;51.550;7.060;2023-02-04T04:10:25;102912.81;;;6.02;82.82
6208;BME280;3137;51.550;7.060;2023-02-04T04:12:51;102919.00;;;6.04;82.35
6208;BME280;3137;51.550;7.060;2023-02-04T04:15:18;102919.00;;;6.03;82.23
6208;BME280;3137;51.550;7.060;2023-02-04T04:17:44;102926.97;;;6.04;82.36
6208;BME280;3137;51.550;7.060;2023-02-04T04:20:11;102935.00;;;6.01;82.27
6208;BME280;3137;51.550;7.060;2023-02-04T04:22:38;102935.91;;;6.00;82.81
6208;BME280;3137;51.550;7.060;2023-02-04T04:25:05;102946.44;;;6.06;82.49
6208;BME280;3137;51.550;7.060;2023-02-04T04:27:31;102951.06;;;5.96;82.76
6208;BME280;3137;51.550;7.060;2023-02-04T04:29:57;102949.25;;;5.99;82.68
6208;BME280;3137;51.550;7.060;2023-02-04T04:32:24;102954.50;;;6.02;83.01
6208;BME280;3137;51.550;7.060;2023-02-04T04:34:50;102955.38;;;6.02;82.92
6208;BME280;3137;51.550;7.060;2023-02-04T04:37:17;102953.63;;;6.01;82.67
6208;BME280;3137;51.550;7.060;2023-02-04T04:39:43;102950.97;;;6.01;82.76
6208;BME280;3137;51.550;7.060;2023-02-04T04:42:09;102950.94;;;6.03;82.74
6208;BME280;3137;51.550;7.060;2023-02-04T04:44:36;102951.84;;;6.00;82.28
6208;BME280;3137;51.550;7.060;2023-02-04T04:47:02;102957.22;;;5.99;82.71
6208;BME280;3137;51.550;7.060;2023-02-04T04:49:28;102959.91;;;5.97;82.89
6208;BME280;3137;51.550;7.060;2023-02-04T04:51:55;102952.78;;;5.99;82.87
6208;BME280;3137;51.550;7.060;2023-02-04T04:54:21;102961.63;;;5.98;82.55
6208;BME280;3137;51.550;7.060;2023-02-04T04:56:47;102959.03;;;5.96;82.55
6208;BME280;3137;51.550;7.060;2023-02-04T04:59:14;102960.78;;;5.96;82.78
6208;BME280;3137;51.550;7.060;2023-02-04T05:01:40;102969.69;;;5.92;82.97
6208;BME280;3137;51.550;7.060;2023-02-04T05:04:06;102971.41;;;5.97;82.78
6208;BME280;3137;51.550;7.060;2023-02-04T05:06:33;102968.84;;;5.90;82.88
6208;BME280;3137;51.550;7.060;2023-02-04T05:08:59;102976.81;;;5.91;82.98
6208;BME280;3137;51.550;7.060;2023-02-04T05:11:26;102971.44;;;5.93;83.02
6208;BME280;3137;51.550;7.060;2023-02-04T05:13:52;102980.38;;;5.89;83.20
6208;BME280;3137;51.550;7.060;2023-02-04T05:16:19;102977.72;;;5.89;83.00
6208;BME280;3137;51.550;7.060;2023-02-04T05:18:45;102988.38;;;5.87;82.89
6208;BME280;3137;51.550;7.060;2023-02-04T05:21:11;102992.84;;;5.87;83.24
6208;BME280;3137;51.550;7.060;2023-02-04T05:23:38;102993.72;;;5.87;83.07
6208;BME280;3137;51.550;7.060;2023-02-04T05:26:04;102989.25;;;5.88;83.13
6208;BME280;3137;51.550;7.060;2023-02-04T05:28:31;102989.31;;;5.85;83.03
6208;BME280;3137;51.550;7.060;2023-02-04T05:30:57;102993.72;;;5.86;83.33
6208;BME280;3137;51.550;7.060;2023-02-04T05:33:23;102995.50;;;5.87;83.54
6208;BME280;3137;51.550;7.060;2023-02-04T05:35:50;102996.44;;;5.81;83.59
6208;BME280;3137;51.550;7.060;2023-02-04T05:38:16;102997.31;;;5.82;83.55
6208;BME280;3137;51.550;7.060;2023-02-04T05:40:42;103001.75;;;5.84;83.42
6208;BME280;3137;51.550;7.060;2023-02-04T05:43:09;103002.63;;;5.83;83.38
6208;BME280;3137;51.550;7.060;2023-02-04T05:45:36;103012.38;;;5.84;83.39
6208;BME280;3137;51.550;7.060;2023-02-04T05:48:02;103007.88;;;5.86;83.59
6208;BME280;3137;51.550;7.060;2023-02-04T05:50:29;103009.72;;;5.83;83.59
6208;BME280;3137;51.550;7.060;2023-02-04T05:53:07;103023.03;;;5.81;83.64
6208;BME280;3137;51.550;7.060;2023-02-04T05:55:33;103028.41;;;5.80;83.71
6208;BME280;3137;51.550;7.060;2023-02-04T05:57:59;103027.47;;;5.81;83.98
6208;BME280;3137;51.550;7.060;2023-02-04T06:00:26;103023.91;;;5.82;83.85
6208;BME280;3137;51.550;7.060;2023-02-04T06:02:52;103033.66;;;5.83;83.65
6208;BME280;3137;51.550;7.060;2023-02-04T06:05:19;103026.56;;;5.83;83.76
6208;BME280;3137;51.550;7.060;2023-02-04T06:07:45;103040.72;;;5.84;83.87
6208;BME280;3137;51.550;7.060;2023-02-04T06:10:12;103040.63;;;5.91;83.73
6208;BME280;3137;51.550;7.060;2023-02-04T06:12:38;103037.97;;;5.91;83.43
6208;BME280;3137;51.550;7.060;2023-02-04T06:15:05;103042.41;;;5.94;83.50
6208;BME280;3137;51.550;7.060;2023-02-04T06:17:31;103053.03;;;5.91;83.28
6208;BME280;3137;51.550;7.060;2023-02-04T06:19:58;103054.78;;;5.95;83.15
6208;BME280;3137;51.550;7.060;2023-02-04T06:22:24;103054.78;;;5.96;83.48
6208;BME280;3137;51.550;7.060;2023-02-04T06:24:51;103053.00;;;5.95;83.47
6208;BME280;3137;51.550;7.060;2023-02-04T06:27:18;103046.78;;;5.93;83.34
6208;BME280;3137;51.550;7.060;2023-02-04T06:29:52;103044.16;;;5.95;83.22
6208;BME280;3137;51.550;7.060;2023-02-04T06:32:19;103050.38;;;5.94;83.51
6208;BME280;3137;51.550;7.060;2023-02-04T06:34:46;103053.06;;;5.89;83.54
6208;BME280;3137;51.550;7.060;2023-02-04T06:37:12;103050.41;;;5.89;83.34
6208;BME280;3137;51.550;7.060;2023-02-04T06:39:40;103049.59;;;5.84;83.85
6208;BME280;3137;51.550;7.060;2023-02-04T06:42:07;103053.16;;;5.82;83.50
6208;BME280;3137;51.550;7.060;2023-02-04T06:44:33;103050.47;;;5.83;83.94
6208;BME280;3137;51.550;7.060;2023-02-04T06:47:00;103048.81;;;5.76;83.80
6208;BME280;3137;51.550;7.060;2023-02-04T06:49:26;103060.38;;;5.75;84.21
6208;BME280;3137;51.550;7.060;2023-02-04T06:51:52;103063.91;;;5.75;84.19
6208;BME280;3137;51.550;7.060;2023-02-04T06:54:20;103071.75;;;5.83;83.81
6208;BME280;3137;51.550;7.060;2023-02-04T06:56:47;103068.22;;;5.83;83.99
6208;BME280;3137;51.550;7.060;2023-02-04T06:59:13;103079.75;;;5.83;83.93
6208;BME280;3137;51.550;7.060;2023-02-04T07:01:39;103077.09;;;5.82;83.98
6208;BME280;3137;51.550;7.060;2023-02-04T07:04:06;103073.53;;;5.84;83.80
6208;BME280;3137;51.550;7.060;2023-02-04T07:06:32;103078.00;;;5.82;84.03
6208;BME280;3137;51.550;7.060;2023-02-04T07:08:59;103072.69;;;5.81;84.31
6208;BME280;3137;51.550;7.060;2023-02-04T07:11:25;103086.00;;;5.79;84.16
6208;BME280;3137;51.550;7.060;2023-02-04T07:13:51;103075.41;;;5.78;84.29
6208;BME280;3137;51.550;7.060;2023-02-04T07:16:18;103079.78;;;5.79;84.49
6208;BME280;3137;51.550;7.060;2023-02-04T07:18:44;103078.91;;;5.80;84.47
6208;BME280;3137;51.550;7.060;2023-02-04T07:21:10;103078.00;;;5.79;84.57
6208;BME280;3137;51.550;7.060;2023-02-04T07:23:37;103087.72;;;5.82;84.43
6208;BME280;3137;51.550;7.060;2023-02-04T07:26:03;103093.94;;;5.82;84.30
6208;BME280;3137;51.550;7.060;2023-02-04T07:28:30;103095.69;;;5.85;84.26
6208;BME280;3137;51.550;7.060;2023-02-04T07:30:56;103096.56;;;5.85;84.42
6208;BME280;3137;51.550;7.060;2023-02-04T07:33:23;103101.00;;;5.83;84.20
6208;BME280;3137;51.550;7.060;2023-02-04T07:35:49;103108.94;;;5.86;84.36
6208;BME280;3137;51.550;7.060;2023-02-04T07:38:15;103104.47;;;5.90;84.08
6208;BME280;3137;51.550;7.060;2023-02-04T07:40:42;103103.53;;;5.92;84.01
6208;BME280;3137;51.550;7.060;2023-02-04T07:43:08;103107.06;;;5.93;84.18
6208;BME280;3137;51.550;7.060;2023-02-04T07:45:36;103110.66;;;5.92;84.35
6208;BME280;3137;51.550;7.060;2023-02-04T07:48:03;103109.75;;;5.94;84.06
6208;BME280;3137;51.550;7.060;2023-02-04T07:50:29;103108.84;;;5.95;84.18
6208;BME280;3137;51.550;7.060;2023-02-04T07:52:56;103104.44;;;5.94;84.54
6208;BME280;3137;51.550;7.060;2023-02-04T07:55:23;103115.94;;;5.93;84.43
6208;BME280;3137;51.550;7.060;2023-02-04T07:57:49;103120.34;;;5.96;84.41
6208;BME280;3137;51.550;7.060;2023-02-04T08:00:15;103116.81;;;5.99;84.51
6208;BME280;3137;51.550;7.060;2023-02-04T08:02:42;103117.69;;;5.99;84.50
6208;BME280;3137;51.550;7.060;2023-02-04T08:05:09;103116.69;;;6.05;84.35
6208;BME280;3137;51.550;7.060;2023-02-04T08:07:35;103117.50;;;6.10;84.14
6208;BME280;3137;51.550;7.060;2023-02-04T08:10:03;103122.91;;;6.05;84.10
6208;BME280;3137;51.550;7.060;2023-02-04T08:12:29;103128.25;;;6.04;84.32
6208;BME280;3137;51.550;7.060;2023-02-04T08:14:56;103135.31;;;6.05;84.08
6208;BME280;3137;51.550;7.060;2023-02-04T08:17:22;103134.44;;;6.06;84.30
6208;BME280;3137;51.550;7.060;2023-02-04T08:19:49;103140.56;;;6.11;84.46
6208;BME280;3137;51.550;7.060;2023-02-04T08:22:15;103144.94;;;6.15;84.78
6208;BME280;3137;51.550;7.060;2023-02-04T08:24:42;103143.06;;;6.20;84.40
6208;BME280;3137;51.550;7.060;2023-02-04T08:27:08;103146.59;;;6.24;84.64
6208;BME280;3137;51.550;7.060;2023-02-04T08:29:35;103150.06;;;6.29;84.71
6208;BME280;3137;51.550;7.060;2023-02-04T08:32:02;103153.63;;;6.28;84.60
6208;BME280;3137;51.550;7.060;2023-02-04T08:34:29;103155.38;;;6.30;84.68
6208;BME280;3137;51.550;7.060;2023-02-04T08:36:55;103169.56;;;6.29;84.27
6208;BME280;3137;51.550;7.060;2023-02-04T08:39:22;103165.19;;;6.25;84.12
6208;BME280;3137;51.550;7.060;2023-02-04T08:41:48;103172.22;;;6.31;84.05
6208;BME280;3137;51.550;7.060;2023-02-04T08:44:16;103173.88;;;6.38;83.59
6208;BME280;3137;51.550;7.060;2023-02-04T08:46:42;103176.47;;;6.44;83.49
6208;BME280;3137;51.550;7.060;2023-02-04T08:49:09;103179.94;;;6.46;83.27
6208;BME280;3137;51.550;7.060;2023-02-04T08:51:35;103191.44;;;6.50;83.37
6208;BME280;3137;51.550;7.060;2023-02-04T08:54:01;103194.09;;;6.51;84.05
6208;BME280;3137;51.550;7.060;2023-02-04T08:56:28;103200.25;;;6.55;83.77
6208;BME280;3137;51.550;7.060;2023-02-04T08:58:54;103197.59;;;6.53;83.51
6208;BME280;3137;51.550;7.060;2023-02-04T09:01:21;103189.59;;;6.53;83.81
6208;BME280;3137;51.550;7.060;2023-02-04T09:03:47;103196.66;;;6.56;83.78
6208;BME280;3137;51.550;7.060;2023-02-04T09:06:13;103193.94;;;6.62;84.10
6208;BME280;3137;51.550;7.060;2023-02-04T09:08:40;103190.34;;;6.65;83.98
6208;BME280;3137;51.550;7.060;2023-02-04T09:11:06;103188.53;;;6.67;83.80
6208;BME280;3137;51.550;7.060;2023-02-04T09:13:35;103203.50;;;6.74;83.69
6208;BME280;3137;51.550;7.060;2023-02-04T09:16:02;103199.84;;;6.79;83.50
6208;BME280;3137;51.550;7.060;2023-02-04T09:18:28;103202.41;;;6.87;83.00
6208;BME280;3137;51.550;7.060;2023-02-04T09:20:55;103200.63;;;6.88;83.22
6208;BME280;3137;51.550;7.060;2023-02-04T09:23:22;103202.28;;;6.95;82.72
6208;BME280;3137;51.550;7.060;2023-02-04T09:25:49;103205.75;;;6.98;82.62
6208;BME280;3137;51.550;7.060;2023-02-04T09:28:16;103206.63;;;6.99;82.69
6208;BME280;3137;51.550;7.060;2023-02-04T09:30:44;103204.66;;;7.12;82.69
6208;BME280;3137;51.550;7.060;2023-02-04T09:33:12;103203.97;;;6.99;82.79
6208;BME280;3137;51.550;7.060;2023-02-04T09:35:39;103210.09;;;7.06;82.83
6208;BME280;3137;51.550;7.060;2023-02-04T09:38:05;103202.97;;;7.06;82.84
6208;BME280;3137;51.550;7.060;2023-02-04T09:40:36;103207.41;;;7.07;82.18
6208;BME280;3137;51.550;7.060;2023-02-04T09:43:06;103215.34;;;7.09;82.60
6208;BME280;3137;51.550;7.060;2023-02-04T09:45:34;103212.59;;;7.15;82.17
6208;BME280;3137;51.550;7.060;2023-02-04T09:48:04;103222.22;;;7.23;82.07
6208;BME280;3137;51.550;7.060;2023-02-04T09:50:32;103223.03;;;7.29;81.36
6208;BME280;3137;51.550;7.060;2023-02-04T09:53:02;103224.75;;;7.33;81.96
6208;BME280;3137;51.550;7.060;2023-02-04T09:55:35;103226.50;;;7.32;81.33
6208;BME280;3137;51.550;7.060;2023-02-04T09:58:13;103239.09;;;7.26;82.32
6208;BME280;3137;51.550;7.060;2023-02-04T10:00:42;103237.25;;;7.28;82.05
6208;BME280;3137;51.550;7.060;2023-02-04T10:03:17;103235.34;;;7.34;81.32
6208;BME280;3137;51.550;7.060;2023-02-04T10:05:45;103241.59;;;7.33;81.01
6208;BME280;3137;51.550;7.060;2023-02-04T10:08:14;103235.44;;;7.30;81.22
6208;BME280;3137;51.550;7.060;2023-02-04T10:10:42;103237.28;;;7.26;81.13
6208;BME280;3137;51.550;7.060;2023-02-04T10:13:18;103240.72;;;7.33;82.22
6208;BME280;3137;51.550;7.060;2023-02-04T10:15:47;103243.41;;;7.33;81.67
6208;BME280;3137;51.550;7.060;2023-02-04T10:18:24;103253.91;;;7.40;80.93
6208;BME280;3137;51.550;7.060;2023-02-04T10:20:56;103250.34;;;7.41;80.96
6208;BME280;3137;51.550;7.060;2023-02-04T10:23:26;103252.13;;;7.42;81.49
6208;BME280;3137;51.550;7.060;2023-02-04T10:25:52;103251.22;;;7.42;81.02
6208;BME280;3137;51.550;7.060;2023-02-04T10:28:18;103259.91;;;7.53;81.28
6208;BME280;3137;51.550;7.060;2023-02-04T10:30:45;103255.44;;;7.54;80.69
6208;BME280;3137;51.550;7.060;2023-02-04T10:33:20;103250.00;;;7.60;80.23
6208;BME280;3137;51.550;7.060;2023-02-04T10:35:51;103249.06;;;7.64;80.02
6208;BME280;3137;51.550;7.060;2023-02-04T10:38:19;103246.09;;;7.78;80.31
6208;BME280;3137;51.550;7.060;2023-02-04T10:40:46;103248.59;;;7.87;79.93
6208;BME280;3137;51.550;7.060;2023-02-04T10:43:21;103239.59;;;7.93;78.83
6208;BME280;3137;51.550;7.060;2023-02-04T10:45:56;103238.59;;;7.98;79.40
6208;BME280;3137;51.550;7.060;2023-02-04T10:48:23;103239.63;;;7.91;78.48
6208;BME280;3137;51.550;7.060;2023-02-04T10:50:50;103241.38;;;7.92;78.42
6208;BME280;3137;51.550;7.060;2023-02-04T10:53:19;103236.88;;;7.96;77.95
6208;BME280;3137;51.550;7.060;2023-02-04T10:56:19;103242.91;;;8.04;78.05
6208;BME280;3137;51.550;7.060;2023-02-04T10:58:46;103248.16;;;8.08;77.58
6208;BME280;3137;51.550;7.060;2023-02-04T11:01:14;103241.94;;;8.09;78.29
6208;BME280;3137;51.550;7.060;2023-02-04T11:03:42;103244.50;;;8.14;77.97
6208;BME280;3137;51.550;7.060;2023-02-04T11:06:18;103246.13;;;8.21;78.12
6208;BME280;3137;51.550;7.060;2023-02-04T11:08:45;103249.63;;;8.23;77.35
6208;BME280;3137;51.550;7.060;2023-02-04T11:11:17;103247.78;;;8.27;76.79
6208;BME280;3137;51.550;7.060;2023-02-04T11:13:57;103246.28;;;8.14;76.46
6208;BME280;3137;51.550;7.060;2023-02-04T11:16:26;103248.00;;;8.16;77.10
6208;BME280;3137;51.550;7.060;2023-02-04T11:18:58;103245.22;;;8.21;77.46
6208;BME280;3137;51.550;7.060;2023-02-04T11:26:45;103254.09;;;8.23;76.73
6208;BME280;3137;51.550;7.060;2023-02-04T11:39:31;103252.78;;;8.44;77.13
6208;BME280;3137;51.550;7.060;2023-02-04T11:41:59;103246.56;;;8.43;76.85
6208;BME280;3137;51.550;7.060;2023-02-04T11:44:26;103254.44;;;8.49;76.80
6208;BME280;3137;51.550;7.060;2023-02-04T11:46:53;103254.50;;;8.46;77.15
6208;BME280;3137;51.550;7.060;2023-02-04T11:49:25;103251.00;;;8.44;76.92
6208;BME280;3137;51.550;7.060;2023-02-04T11:52:12;103251.16;;;8.35;75.96
6208;BME280;3137;51.550;7.060;2023-02-04T11:54:39;103251.84;;;8.46;76.55
6208;BME280;3137;51.550;7.060;2023-02-04T11:57:05;103249.25;;;8.43;76.57
6208;BME280;3137;51.550;7.060;2023-02-04T11:59:32;103252.81;;;8.42;76.90
6208;BME280;3137;51.550;7.060;2023-02-04T12:02:12;103244.66;;;8.50;77.05
6208;BME280;3137;51.550;7.060;2023-02-04T12:04:53;103245.56;;;8.49;76.00
6208;BME280;3137;51.550;7.060;2023-02-04T12:07:23;103240.94;;;8.57;76.63
6208;BME280;3137;51.550;7.060;2023-02-04T12:09:50;103240.75;;;8.65;76.55
6208;BME280;3137;51.550;7.060;2023-02-04T12:12:28;103246.19;;;8.60;75.74
6208;BME280;3137;51.550;7.060;2023-02-04T12:15:20;103251.56;;;8.59;75.58
6208;BME280;3137;51.550;7.060;2023-02-04T12:17:43;103253.44;;;8.55;75.17
6208;BME280;3137;51.550;7.060;2023-02-04T12:20:13;103257.06;;;8.52;75.97
6208;BME280;3137;51.550;7.060;2023-02-04T12:22:40;103257.78;;;8.59;76.67
6208;BME280;3137;51.550;7.060;2023-02-04T12:25:06;103256.88;;;8.60;75.98
6208;BME280;3137;51.550;7.060;2023-02-04T12:27:33;103257.94;;;8.53;75.46
6208;BME280;3137;51.550;7.060;2023-02-04T12:29:59;103258.81;;;8.52;76.02
6208;BME280;3137;51.550;7.060;2023-02-04T12:32:26;103263.38;;;8.48;75.03
6208;BME280;3137;51.550;7.060;2023-02-04T12:34:52;103261.47;;;8.55;75.07
6208;BME280;3137;51.550;7.060;2023-02-04T12:37:18;103255.28;;;8.51;75.76
6208;BME280;3137;51.550;7.060;2023-02-04T12:39:44;103252.50;;;8.56;75.59
6208;BME280;3137;51.550;7.060;2023-02-04T12:42:11;103252.63;;;8.51;75.08
6208;BME280;3137;51.550;7.060;2023-02-04T12:44:37;103253.66;;;8.44;74.58
6208;BME280;3137;51.550;7.060;2023-02-04T12:47:04;103261.41;;;8.57;76.00
6208;BME280;3137;51.550;7.060;2023-02-04T12:49:30;103269.50;;;8.54;75.24
6208;BME280;3137;51.550;7.060;2023-02-04T12:51:56;103264.03;;;8.60;75.42
6208;BME280;3137;51.550;7.060;2023-02-04T12:54:24;103276.44;;;8.61;74.11
6208;BME280;3137;51.550;7.060;2023-02-04T12:56:50;103278.16;;;8.65;74.80
6208;BME280;3137;51.550;7.060;2023-02-04T12:59:18;103277.13;;;8.70;73.97
6208;BME280;3137;51.550;7.060;2023-02-04T13:01:44;103272.59;;;8.74;74.33
6208;BME280;3137;51.550;7.060;2023-02-04T13:04:11;103271.50;;;8.83;74.09
6208;BME280;3137;51.550;7.060;2023-02-04T13:06:37;103273.19;;;8.87;74.01
6208;BME280;3137;51.550;7.060;2023-02-04T13:09:04;103266.91;;;8.88;73.44
6208;BME280;3137;51.550;7.060;2023-02-04T13:11:30;103268.06;;;8.76;73.31
6208;BME280;3137;51.550;7.060;2023-02-04T13:13:56;103270.50;;;8.87;74.41
6208;BME280;3137;51.550;7.060;2023-02-04T13:16:23;103270.53;;;8.85;72.88
6208;BME280;3137;51.550;7.060;2023-02-04T13:18:50;103270.50;;;8.88;72.51
6208;BME280;3137;51.550;7.060;2023-02-04T13:21:16;103266.00;;;8.89;73.70
6208;BME280;3137;51.550;7.060;2023-02-04T13:23:43;103260.63;;;8.90;73.61
6208;BME280;3137;51.550;7.060;2023-02-04T13:26:09;103251.78;;;8.88;72.69
6208;BME280;3137;51.550;7.060;2023-02-04T13:28:36;103255.47;;;8.83;72.89
6208;BME280;3137;51.550;7.060;2023-02-04T13:31:03;103252.50;;;8.95;72.48
6208;BME280;3137;51.550;7.060;2023-02-04T13:33:30;103253.88;;;9.11;72.64
6208;BME280;3137;51.550;7.060;2023-02-04T13:35:56;103249.91;;;9.28;71.26
6208;BME280;3137;51.550;7.060;2023-02-04T13:38:22;103249.59;;;9.40;69.63
6208;BME280;3137;51.550;7.060;2023-02-04T13:40:50;103240.38;;;9.50;70.24